sensor_id;sensor_type;location;lat;lon;timestamp;pressure;altitude;pressure_sealevel;temperature;humidity
70343;BME280;57767;42.068;24.752;2022-08-03T00:00:46;98752.00;;;24.91;44.75
70343;BME280;57767;42.068;24.752;2022-08-03T00:01:48;98752.53;;;24.93;45.37
70343;BME280;57767;42.068;24.752;2022-08-03T00:02:50;98747.13;;;24.93;44.98
70343;BME280;57767;42.068;24.752;2022-08-03T00:03:52;98758.75;;;24.93;44.18
70343;BME280;57767;42.068;24.752;2022-08-03T00:04:53;98747.94;;;24.93;44.52
70343;BME280;57767;42.068;24.752;2022-08-03T00:05:55;98747.13;;;24.93;44.34
70343;BME280;57767;42.068;24.752;2022-08-03T00:07:05;98749.31;;;24.91;44.14
70343;BME280;57767;42.068;24.752;2022-08-03T00:08:07;98733.81;;;24.83;43.46
70343;BME280;57767;42.068;24.752;2022-08-03T00:09:09;98743.69;;;24.87;42.94
70343;BME280;57767;42.068;24.752;2022-08-03T00:10:11;98732.94;;;24.74;43.22
70343;BME280;57767;42.068;24.752;2022-08-03T00:11:14;98747.31;;;24.83;44.20
70343;BME280;57767;42.068;24.752;2022-08-03T00:12:15;98746.19;;;24.84;43.69
70343;BME280;57767;42.068;24.752;2022-08-03T00:13:17;98748.91;;;24.84;43.55
70343;BME280;57767;42.068;24.752;2022-08-03T00:14:20;98738.03;;;24.75;43.22
70343;BME280;57767;42.068;24.752;2022-08-03T00:15:22;98755.09;;;24.84;44.03
70343;BME280;57767;42.068;24.752;2022-08-03T00:16:26;98747.63;;;24.81;43.95
70343;BME280;57767;42.068;24.752;2022-08-03T00:17:28;98746.94;;;24.76;43.35
70343;BME280;57767;42.068;24.752;2022-08-03T00:18:49;98756.63;;;24.77;43.54
70343;BME280;57767;42.068;24.752;2022-08-03T00:19:51;98750.72;;;24.75;45.26
70343;BME280;57767;42.068;24.752;2022-08-03T00:20:53;98749.44;;;24.72;45.39
70343;BME280;57767;42.068;24.752;2022-08-03T00:21:55;98747.53;;;24.73;45.62
70343;BME280;57767;42.068;24.752;2022-08-03T00:22:57;98757.53;;;24.72;45.06
70343;BME280;57767;42.068;24.752;2022-08-03T00:23:59;98745.06;;;24.62;44.33
70343;BME280;57767;42.068;24.752;2022-08-03T00:25:00;98748.47;;;24.68;44.29
70343;BME280;57767;42.068;24.752;2022-08-03T00:26:02;98751.97;;;24.69;44.19
70343;BME280;57767;42.068;24.752;2022-08-03T00:27:04;98753.06;;;24.68;44.64
70343;BME280;57767;42.068;24.752;2022-08-03T00:28:06;98752.56;;;24.66;44.70
70343;BME280;57767;42.068;24.752;2022-08-03T00:29:08;98753.66;;;24.64;45.11
70343;BME280;57767;42.068;24.752;2022-08-03T00:30:10;98741.97;;;24.55;44.88
70343;BME280;57767;42.068;24.752;2022-08-03T00:31:15;98749.66;;;24.62;43.95
70343;BME280;57767;42.068;24.752;2022-08-03T00:32:26;98752.06;;;24.63;45.02
70343;BME280;57767;42.068;24.752;2022-08-03T00:33:28;98747.75;;;24.62;45.27
70343;BME280;57767;42.068;24.752;2022-08-03T00:34:50;98737.97;;;24.53;45.02
70343;BME280;57767;42.068;24.752;2022-08-03T00:35:59;98752.66;;;24.60;46.67
70343;BME280;57767;42.068;24.752;2022-08-03T00:37:01;98753.06;;;24.54;46.16
70343;BME280;57767;42.068;24.752;2022-08-03T00:38:03;98739.66;;;24.35;46.05
70343;BME280;57767;42.068;24.752;2022-08-03T00:39:05;98747.69;;;24.40;45.35
70343;BME280;57767;42.068;24.752;2022-08-03T00:40:08;98746.16;;;24.34;44.93
70343;BME280;57767;42.068;24.752;2022-08-03T00:41:10;98747.97;;;24.39;44.85
70343;BME280;57767;42.068;24.752;2022-08-03T00:42:16;98757.97;;;24.38;45.92
70343;BME280;57767;42.068;24.752;2022-08-03T00:43:18;98760.66;;;24.38;44.98
70343;BME280;57767;42.068;24.752;2022-08-03T00:44:19;98761.75;;;24.37;44.65
70343;BME280;57767;42.068;24.752;2022-08-03T00:45:24;98756.38;;;24.37;44.45
70343;BME280;57767;42.068;24.752;2022-08-03T00:46:27;98753.00;;;24.32;44.18
70343;BME280;57767;42.068;24.752;2022-08-03T00:47:29;98770.56;;;24.29;44.13
70343;BME280;57767;42.068;24.752;2022-08-03T00:48:30;98763.75;;;24.18;45.26
70343;BME280;57767;42.068;24.752;2022-08-03T00:49:34;98763.75;;;24.18;44.97
70343;BME280;57767;42.068;24.752;2022-08-03T00:50:41;98764.84;;;24.17;45.76
70343;BME280;57767;42.068;24.752;2022-08-03T00:51:43;98770.53;;;24.15;44.68
70343;BME280;57767;42.068;24.752;2022-08-03T00:52:45;98743.31;;;23.98;45.74
70343;BME280;57767;42.068;24.752;2022-08-03T00:53:48;98757.53;;;24.04;46.11
70343;BME280;57767;42.068;24.752;2022-08-03T00:54:49;98762.00;;;24.08;45.75
70343;BME280;57767;42.068;24.752;2022-08-03T00:55:51;98763.72;;;24.04;46.52
70343;BME280;57767;42.068;24.752;2022-08-03T00:56:53;98773.09;;;24.07;46.32
70343;BME280;57767;42.068;24.752;2022-08-03T00:58:02;98754.53;;;23.91;46.45
70343;BME280;57767;42.068;24.752;2022-08-03T00:59:08;98768.59;;;23.88;47.12
70343;BME280;57767;42.068;24.752;2022-08-03T01:00:12;98760.72;;;23.92;47.44
70343;BME280;57767;42.068;24.752;2022-08-03T01:01:14;98764.28;;;23.87;47.22
70343;BME280;57767;42.068;24.752;2022-08-03T01:02:18;98766.19;;;23.87;47.72
70343;BME280;57767;42.068;24.752;2022-08-03T01:03:19;98770.78;;;23.86;46.91
70343;BME280;57767;42.068;24.752;2022-08-03T01:04:21;98760.88;;;23.68;47.16
70343;BME280;57767;42.068;24.752;2022-08-03T01:05:23;98771.53;;;23.73;47.86
70343;BME280;57767;42.068;24.752;2022-08-03T01:06:40;98773.22;;;23.69;47.23
70343;BME280;57767;42.068;24.752;2022-08-03T01:08:04;98770.22;;;23.71;47.90
70343;BME280;57767;42.068;24.752;2022-08-03T01:09:25;98771.66;;;23.68;47.24
70343;BME280;57767;42.068;24.752;2022-08-03T01:10:41;98760.66;;;23.65;46.87
70343;BME280;57767;42.068;24.752;2022-08-03T01:12:05;98774.41;;;23.63;46.07
70343;BME280;57767;42.068;24.752;2022-08-03T01:14:45;98768.91;;;23.54;47.82
70343;BME280;57767;42.068;24.752;2022-08-03T01:17:13;98753.16;;;23.43;46.26
70343;BME280;57767;42.068;24.752;2022-08-03T01:18:23;98770.19;;;23.57;47.38
70343;BME280;57767;42.068;24.752;2022-08-03T01:19:43;98749.34;;;23.44;46.78
70343;BME280;57767;42.068;24.752;2022-08-03T01:20:52;98763.81;;;23.53;47.86
70343;BME280;57767;42.068;24.752;2022-08-03T01:29:17;98775.72;;;23.47;48.06
70343;BME280;57767;42.068;24.752;2022-08-03T01:30:29;98770.91;;;23.44;48.23
70343;BME280;57767;42.068;24.752;2022-08-03T01:31:37;98776.28;;;23.44;48.06
70343;BME280;57767;42.068;24.752;2022-08-03T01:33:03;98769.13;;;23.39;48.68
70343;BME280;57767;42.068;24.752;2022-08-03T01:34:10;98770.50;;;23.37;48.00
70343;BME280;57767;42.068;24.752;2022-08-03T01:35:25;98772.38;;;23.36;48.28
70343;BME280;57767;42.068;24.752;2022-08-03T01:36:35;98761.69;;;23.31;49.20
70343;BME280;57767;42.068;24.752;2022-08-03T01:37:42;98767.28;;;23.35;48.47
70343;BME280;57767;42.068;24.752;2022-08-03T01:38:52;98768.88;;;23.36;48.92
70343;BME280;57767;42.068;24.752;2022-08-03T01:39:56;98768.88;;;23.36;48.56
70343;BME280;57767;42.068;24.752;2022-08-03T01:41:10;98772.69;;;23.35;48.42
70343;BME280;57767;42.068;24.752;2022-08-03T01:42:13;98768.88;;;23.36;48.61
70343;BME280;57767;42.068;24.752;2022-08-03T01:43:20;98781.03;;;23.33;48.65
70343;BME280;57767;42.068;24.752;2022-08-03T01:44:46;98769.75;;;23.31;49.34
70343;BME280;57767;42.068;24.752;2022-08-03T01:45:50;98766.25;;;23.31;49.56
70343;BME280;57767;42.068;24.752;2022-08-03T01:46:53;98760.38;;;23.10;49.12
70343;BME280;57767;42.068;24.752;2022-08-03T01:47:56;98777.56;;;23.14;49.69
70343;BME280;57767;42.068;24.752;2022-08-03T01:49:00;98760.31;;;22.96;50.19
70343;BME280;57767;42.068;24.752;2022-08-03T01:50:11;98774.81;;;23.00;50.65
70343;BME280;57767;42.068;24.752;2022-08-03T01:51:15;98773.72;;;23.01;50.52
70343;BME280;57767;42.068;24.752;2022-08-03T01:52:19;98753.69;;;22.89;50.22
70343;BME280;57767;42.068;24.752;2022-08-03T01:53:22;98769.94;;;23.02;50.35
70343;BME280;57767;42.068;24.752;2022-08-03T01:54:25;98764.84;;;23.01;49.43
70343;BME280;57767;42.068;24.752;2022-08-03T01:55:29;98768.75;;;23.08;49.04
70343;BME280;57767;42.068;24.752;2022-08-03T01:56:32;98768.19;;;23.11;48.62
70343;BME280;57767;42.068;24.752;2022-08-03T01:57:38;98777.88;;;23.12;48.47
70343;BME280;57767;42.068;24.752;2022-08-03T01:59:01;98773.56;;;23.11;48.91
70343;BME280;57767;42.068;24.752;2022-08-03T02:00:04;98775.75;;;23.09;48.99
70343;BME280;57767;42.068;24.752;2022-08-03T02:01:10;98760.78;;;23.03;48.47
70343;BME280;57767;42.068;24.752;2022-08-03T02:02:15;98770.38;;;23.09;48.48
70343;BME280;57767;42.068;24.752;2022-08-03T02:03:37;98771.75;;;23.07;49.45
70343;BME280;57767;42.068;24.752;2022-08-03T02:05:00;98776.03;;;23.08;50.04
70343;BME280;57767;42.068;24.752;2022-08-03T02:06:04;98777.13;;;23.07;49.86
70343;BME280;57767;42.068;24.752;2022-08-03T02:07:28;98774.22;;;23.03;50.86
70343;BME280;57767;42.068;24.752;2022-08-03T02:08:31;98773.34;;;23.08;51.76
70343;BME280;57767;42.068;24.752;2022-08-03T02:09:36;98769.03;;;23.07;51.64
70343;BME280;57767;42.068;24.752;2022-08-03T02:10:40;98769.94;;;23.02;50.64
70343;BME280;57767;42.068;24.752;2022-08-03T02:11:43;98764.47;;;23.07;51.52
70343;BME280;57767;42.068;24.752;2022-08-03T02:12:47;98749.53;;;22.96;52.12
70343;BME280;57767;42.068;24.752;2022-08-03T02:13:52;98764.47;;;23.07;51.08
70343;BME280;57767;42.068;24.752;2022-08-03T02:14:58;98754.06;;;23.01;51.00
70343;BME280;57767;42.068;24.752;2022-08-03T02:16:04;98767.94;;;23.08;51.19
70343;BME280;57767;42.068;24.752;2022-08-03T02:17:08;98753.31;;;22.95;50.56
70343;BME280;57767;42.068;24.752;2022-08-03T02:18:11;98773.34;;;23.08;49.64
70343;BME280;57767;42.068;24.752;2022-08-03T02:19:15;98770.66;;;23.08;50.38
70343;BME280;57767;42.068;24.752;2022-08-03T02:20:17;98751.72;;;22.94;51.36
70343;BME280;57767;42.068;24.752;2022-08-03T02:21:20;98775.22;;;23.07;51.37
70343;BME280;57767;42.068;24.752;2022-08-03T02:22:43;98750.13;;;22.93;50.72
70343;BME280;57767;42.068;24.752;2022-08-03T02:23:47;98774.44;;;23.07;51.69
70343;BME280;57767;42.068;24.752;2022-08-03T02:24:49;98761.34;;;23.00;51.98
70343;BME280;57767;42.068;24.752;2022-08-03T02:25:57;98766.34;;;23.07;53.59
70343;BME280;57767;42.068;24.752;2022-08-03T02:27:07;98771.44;;;23.08;53.36
70343;BME280;57767;42.068;24.752;2022-08-03T02:28:16;98770.13;;;23.06;53.45
70343;BME280;57767;42.068;24.752;2022-08-03T02:29:20;98769.34;;;23.05;52.66
70343;BME280;57767;42.068;24.752;2022-08-03T02:30:42;98764.84;;;23.01;53.55
70343;BME280;57767;42.068;24.752;2022-08-03T02:31:47;98748.31;;;22.89;54.25
70343;BME280;57767;42.068;24.752;2022-08-03T02:32:54;98771.59;;;22.98;54.13
70343;BME280;57767;42.068;24.752;2022-08-03T02:34:03;98764.38;;;22.94;55.21
70343;BME280;57767;42.068;24.752;2022-08-03T02:35:10;98759.22;;;22.78;54.49
70343;BME280;57767;42.068;24.752;2022-08-03T02:36:14;98765.84;;;22.86;55.51
70343;BME280;57767;42.068;24.752;2022-08-03T02:37:19;98772.84;;;22.87;56.11
70343;BME280;57767;42.068;24.752;2022-08-03T02:38:26;98772.53;;;22.89;55.76
70343;BME280;57767;42.068;24.752;2022-08-03T02:39:30;98772.25;;;22.90;55.88
70343;BME280;57767;42.068;24.752;2022-08-03T02:40:35;98776.56;;;22.91;56.46
70343;BME280;57767;42.068;24.752;2022-08-03T02:41:42;98770.09;;;22.92;58.09
70343;BME280;57767;42.068;24.752;2022-08-03T02:42:48;98754.84;;;22.82;58.03
70343;BME280;57767;42.068;24.752;2022-08-03T02:43:53;98771.97;;;22.92;57.42
70343;BME280;57767;42.068;24.752;2022-08-03T02:45:09;98771.66;;;22.93;55.64
70343;BME280;57767;42.068;24.752;2022-08-03T02:46:17;98772.47;;;22.94;56.61
70343;BME280;57767;42.068;24.752;2022-08-03T02:47:21;98759.66;;;22.85;56.12
70343;BME280;57767;42.068;24.752;2022-08-03T02:48:26;98767.44;;;22.87;55.23
70343;BME280;57767;42.068;24.752;2022-08-03T02:49:30;98775.47;;;22.92;56.07
70343;BME280;57767;42.068;24.752;2022-08-03T02:50:53;98781.34;;;22.94;54.37
70343;BME280;57767;42.068;24.752;2022-08-03T02:51:56;98778.50;;;22.85;50.84
70343;BME280;57767;42.068;24.752;2022-08-03T02:53:00;98771.91;;;22.73;51.40
70343;BME280;57767;42.068;24.752;2022-08-03T02:54:04;98768.25;;;22.64;52.66
70343;BME280;57767;42.068;24.752;2022-08-03T02:55:08;98780.28;;;22.71;51.63
70343;BME280;57767;42.068;24.752;2022-08-03T02:56:11;98775.69;;;22.72;52.15
70343;BME280;57767;42.068;24.752;2022-08-03T02:57:14;98774.59;;;22.73;52.49
70343;BME280;57767;42.068;24.752;2022-08-03T02:58:19;98770.81;;;22.74;54.38
70343;BME280;57767;42.068;24.752;2022-08-03T02:59:25;98775.91;;;22.75;55.16
70343;BME280;57767;42.068;24.752;2022-08-03T03:00:30;98766.28;;;22.69;54.82
70343;BME280;57767;42.068;24.752;2022-08-03T03:01:33;98752.69;;;22.61;54.15
70343;BME280;57767;42.068;24.752;2022-08-03T03:02:35;98770.59;;;22.70;53.48
70343;BME280;57767;42.068;24.752;2022-08-03T03:03:39;98781.06;;;22.77;52.84
70343;BME280;57767;42.068;24.752;2022-08-03T03:04:46;98783.13;;;22.80;52.42
70343;BME280;57767;42.068;24.752;2022-08-03T03:06:10;98783.13;;;22.80;52.83
70343;BME280;57767;42.068;24.752;2022-08-03T03:07:16;98774.88;;;22.71;52.18
70343;BME280;57767;42.068;24.752;2022-08-03T03:08:19;98792.34;;;22.79;50.92
70343;BME280;57767;42.068;24.752;2022-08-03T03:09:29;98783.75;;;22.72;52.51
70343;BME280;57767;42.068;24.752;2022-08-03T03:10:44;98789.63;;;22.79;52.28
70343;BME280;57767;42.068;24.752;2022-08-03T03:11:48;98791.53;;;22.78;52.49
70343;BME280;57767;42.068;24.752;2022-08-03T03:12:57;98796.31;;;22.81;52.94
70343;BME280;57767;42.068;24.752;2022-08-03T03:13:59;98795.50;;;22.81;54.67
70343;BME280;57767;42.068;24.752;2022-08-03T03:15:02;98798.19;;;22.81;53.45
70343;BME280;57767;42.068;24.752;2022-08-03T03:16:05;98796.03;;;22.83;52.67
70343;BME280;57767;42.068;24.752;2022-08-03T03:17:08;98792.81;;;22.81;53.89
70343;BME280;57767;42.068;24.752;2022-08-03T03:18:11;98794.72;;;22.80;53.02
70343;BME280;57767;42.068;24.752;2022-08-03T03:19:20;98791.00;;;22.76;54.26
70343;BME280;57767;42.068;24.752;2022-08-03T03:20:23;98794.22;;;22.78;54.10
70343;BME280;57767;42.068;24.752;2022-08-03T03:21:31;98785.13;;;22.69;54.69
70343;BME280;57767;42.068;24.752;2022-08-03T03:22:35;98787.03;;;22.69;54.89
70343;BME280;57767;42.068;24.752;2022-08-03T03:23:38;98798.00;;;22.77;54.16
70343;BME280;57767;42.068;24.752;2022-08-03T03:24:41;98797.72;;;22.79;55.12
70343;BME280;57767;42.068;24.752;2022-08-03T03:25:44;98790.22;;;22.71;54.78
70343;BME280;57767;42.068;24.752;2022-08-03T03:26:47;98799.19;;;22.66;54.41
70343;BME280;57767;42.068;24.752;2022-08-03T03:27:49;98798.44;;;22.61;52.68
70343;BME280;57767;42.068;24.752;2022-08-03T03:28:51;98786.84;;;22.41;53.88
70343;BME280;57767;42.068;24.752;2022-08-03T03:29:53;98807.19;;;22.47;53.19
70343;BME280;57767;42.068;24.752;2022-08-03T03:30:55;98806.91;;;22.49;52.71
70343;BME280;57767;42.068;24.752;2022-08-03T03:31:57;98806.50;;;22.37;52.56
70343;BME280;57767;42.068;24.752;2022-08-03T03:33:02;98812.44;;;22.10;53.83
70343;BME280;57767;42.068;24.752;2022-08-03T03:34:05;98800.69;;;22.01;54.01
70343;BME280;57767;42.068;24.752;2022-08-03T03:35:08;98817.25;;;22.13;53.69
70343;BME280;57767;42.068;24.752;2022-08-03T03:36:10;98803.66;;;21.99;53.23
70343;BME280;57767;42.068;24.752;2022-08-03T03:37:12;98800.72;;;21.96;53.63
70343;BME280;57767;42.068;24.752;2022-08-03T03:38:13;98811.53;;;21.91;54.34
70343;BME280;57767;42.068;24.752;2022-08-03T03:39:15;98816.38;;;21.89;55.10
70343;BME280;57767;42.068;24.752;2022-08-03T03:40:17;98819.81;;;21.94;55.45
70343;BME280;57767;42.068;24.752;2022-08-03T03:41:19;98813.41;;;21.90;54.70
70343;BME280;57767;42.068;24.752;2022-08-03T03:42:21;98822.50;;;21.94;54.36
70343;BME280;57767;42.068;24.752;2022-08-03T03:43:23;98822.88;;;21.83;54.13
70343;BME280;57767;42.068;24.752;2022-08-03T03:44:28;98821.50;;;21.85;53.89
70343;BME280;57767;42.068;24.752;2022-08-03T03:45:31;98824.38;;;21.94;54.16
70343;BME280;57767;42.068;24.752;2022-08-03T03:46:34;98829.19;;;22.02;55.25
70343;BME280;57767;42.068;24.752;2022-08-03T03:47:37;98814.69;;;21.98;54.93
70343;BME280;57767;42.068;24.752;2022-08-03T03:48:39;98837.72;;;22.09;54.83
70343;BME280;57767;42.068;24.752;2022-08-03T03:49:42;98783.06;;;21.85;56.01
70343;BME280;57767;42.068;24.752;2022-08-03T03:50:44;98826.97;;;22.09;56.17
70343;BME280;57767;42.068;24.752;2022-08-03T03:51:46;98813.09;;;21.92;55.91
70343;BME280;57767;42.068;24.752;2022-08-03T03:52:48;98823.34;;;21.90;55.78
70343;BME280;57767;42.068;24.752;2022-08-03T03:53:57;98825.84;;;21.81;54.92
70343;BME280;57767;42.068;24.752;2022-08-03T03:54:59;98817.06;;;21.70;55.13
70343;BME280;57767;42.068;24.752;2022-08-03T03:56:02;98826.91;;;21.80;54.41
70343;BME280;57767;42.068;24.752;2022-08-03T03:57:04;98817.22;;;21.84;55.31
70343;BME280;57767;42.068;24.752;2022-08-03T03:58:06;98824.09;;;22.00;55.29
70343;BME280;57767;42.068;24.752;2022-08-03T03:59:08;98826.97;;;22.09;54.35
70343;BME280;57767;42.068;24.752;2022-08-03T04:00:11;98817.28;;;22.08;54.39
70343;BME280;57767;42.068;24.752;2022-08-03T04:01:14;98828.19;;;22.22;53.34
70343;BME280;57767;42.068;24.752;2022-08-03T04:02:16;98829.44;;;22.29;54.09
70343;BME280;57767;42.068;24.752;2022-08-03T04:03:18;98832.63;;;22.36;55.00
70343;BME280;57767;42.068;24.752;2022-08-03T04:04:20;98838.44;;;22.43;56.88
70343;BME280;57767;42.068;24.752;2022-08-03T04:05:40;98835.72;;;22.48;54.58
70343;BME280;57767;42.068;24.752;2022-08-03T04:07:01;98827.94;;;22.47;53.71
70343;BME280;57767;42.068;24.752;2022-08-03T04:08:22;98816.84;;;22.54;53.82
70343;BME280;57767;42.068;24.752;2022-08-03T04:09:44;98837.84;;;22.75;55.96
70343;BME280;57767;42.068;24.752;2022-08-03T04:11:21;98829.41;;;22.82;54.69
70343;BME280;57767;42.068;24.752;2022-08-03T04:12:32;98822.75;;;22.79;54.50
70343;BME280;57767;42.068;24.752;2022-08-03T04:13:52;98823.53;;;22.80;53.61
70343;BME280;57767;42.068;24.752;2022-08-03T04:15:02;98822.38;;;22.86;53.69
70343;BME280;57767;42.068;24.752;2022-08-03T04:16:07;98826.63;;;22.92;53.18
70343;BME280;57767;42.068;24.752;2022-08-03T04:17:11;98837.78;;;23.04;52.80
70343;BME280;57767;42.068;24.752;2022-08-03T04:18:15;98835.00;;;23.09;52.69
70343;BME280;57767;42.068;24.752;2022-08-03T04:19:26;98842.44;;;23.17;52.86
70343;BME280;57767;42.068;24.752;2022-08-03T04:20:30;98842.00;;;23.29;52.99
70343;BME280;57767;42.068;24.752;2022-08-03T04:21:34;98845.06;;;23.41;53.32
70343;BME280;57767;42.068;24.752;2022-08-03T04:22:38;98840.66;;;23.50;54.38
70343;BME280;57767;42.068;24.752;2022-08-03T04:23:45;98837.28;;;23.58;52.90
70343;BME280;57767;42.068;24.752;2022-08-03T04:25:06;98846.50;;;23.71;52.68
70343;BME280;57767;42.068;24.752;2022-08-03T04:26:11;98841.56;;;23.78;52.40
70343;BME280;57767;42.068;24.752;2022-08-03T04:27:15;98841.41;;;23.88;52.36
70343;BME280;57767;42.068;24.752;2022-08-03T04:28:18;98845.00;;;23.98;50.75
70343;BME280;57767;42.068;24.752;2022-08-03T04:29:33;98842.81;;;24.00;49.99
70343;BME280;57767;42.068;24.752;2022-08-03T04:30:39;98835.34;;;24.10;50.23
70343;BME280;57767;42.068;24.752;2022-08-03T04:31:48;98832.78;;;24.19;48.63
70343;BME280;57767;42.068;24.752;2022-08-03T04:32:52;98844.81;;;24.26;49.74
70343;BME280;57767;42.068;24.752;2022-08-03T04:33:55;98841.59;;;24.24;49.79
70343;BME280;57767;42.068;24.752;2022-08-03T04:34:58;98853.31;;;24.34;49.69
70343;BME280;57767;42.068;24.752;2022-08-03T04:36:01;98845.03;;;24.30;48.69
70343;BME280;57767;42.068;24.752;2022-08-03T04:37:10;98860.53;;;24.38;48.55
70343;BME280;57767;42.068;24.752;2022-08-03T04:38:14;98862.13;;;24.39;48.37
70343;BME280;57767;42.068;24.752;2022-08-03T04:39:23;98835.50;;;24.33;48.76
70343;BME280;57767;42.068;24.752;2022-08-03T04:40:31;98861.53;;;24.42;47.53
70343;BME280;57767;42.068;24.752;2022-08-03T04:41:34;98858.91;;;24.37;48.52
70343;BME280;57767;42.068;24.752;2022-08-03T04:42:57;98862.13;;;24.39;46.80
70343;BME280;57767;42.068;24.752;2022-08-03T04:44:01;98849.81;;;24.33;47.06
70343;BME280;57767;42.068;24.752;2022-08-03T04:45:04;98867.13;;;24.46;46.51
70343;BME280;57767;42.068;24.752;2022-08-03T04:46:07;98856.03;;;24.47;46.89
70343;BME280;57767;42.068;24.752;2022-08-03T04:47:09;98857.63;;;24.48;46.89
70343;BME280;57767;42.068;24.752;2022-08-03T04:48:13;98857.34;;;24.50;47.38
70343;BME280;57767;42.068;24.752;2022-08-03T04:49:15;98854.34;;;24.51;47.62
70343;BME280;57767;42.068;24.752;2022-08-03T04:50:18;98859.16;;;24.54;47.89
70343;BME280;57767;42.068;24.752;2022-08-03T04:51:22;98862.94;;;24.53;48.24
70343;BME280;57767;42.068;24.752;2022-08-03T04:52:24;98859.16;;;24.54;48.27
70343;BME280;57767;42.068;24.752;2022-08-03T04:53:25;98866.94;;;24.56;48.29
70343;BME280;57767;42.068;24.752;2022-08-03T04:54:27;98858.72;;;24.47;47.37
70343;BME280;57767;42.068;24.752;2022-08-03T04:55:31;98869.94;;;24.54;46.91
70343;BME280;57767;42.068;24.752;2022-08-03T04:56:33;98865.13;;;24.51;47.03
70343;BME280;57767;42.068;24.752;2022-08-03T04:57:35;98868.84;;;24.55;48.10
70343;BME280;57767;42.068;24.752;2022-08-03T04:58:37;98857.63;;;24.48;47.92
70343;BME280;57767;42.068;24.752;2022-08-03T04:59:39;98869.31;;;24.57;49.10
70343;BME280;57767;42.068;24.752;2022-08-03T05:00:41;98863.03;;;24.48;47.75
70343;BME280;57767;42.068;24.752;2022-08-03T05:01:43;98875.34;;;24.54;48.16
70343;BME280;57767;42.068;24.752;2022-08-03T05:02:45;98859.22;;;24.49;48.31
70343;BME280;57767;42.068;24.752;2022-08-03T05:03:47;98861.84;;;24.54;47.74
70343;BME280;57767;42.068;24.752;2022-08-03T05:04:49;98846.44;;;24.41;48.13
70343;BME280;57767;42.068;24.752;2022-08-03T05:05:52;98868.56;;;24.57;48.45
70343;BME280;57767;42.068;24.752;2022-08-03T05:07:02;98868.22;;;24.58;47.55
70343;BME280;57767;42.068;24.752;2022-08-03T05:08:12;98874.63;;;24.62;49.45
70343;BME280;57767;42.068;24.752;2022-08-03T05:09:14;98862.03;;;24.58;50.00
70343;BME280;57767;42.068;24.752;2022-08-03T05:10:36;98869.75;;;24.64;47.15
70343;BME280;57767;42.068;24.752;2022-08-03T05:11:38;98861.13;;;24.62;46.96
70343;BME280;57767;42.068;24.752;2022-08-03T05:12:40;98866.97;;;24.70;47.29
70343;BME280;57767;42.068;24.752;2022-08-03T05:13:45;98881.06;;;24.80;47.34
70343;BME280;57767;42.068;24.752;2022-08-03T05:14:47;98872.16;;;24.80;47.13
70343;BME280;57767;42.068;24.752;2022-08-03T05:15:49;98841.56;;;24.57;47.55
70343;BME280;57767;42.068;24.752;2022-08-03T05:16:51;98876.03;;;24.87;47.77
70343;BME280;57767;42.068;24.752;2022-08-03T05:17:53;98881.09;;;24.94;46.98
70343;BME280;57767;42.068;24.752;2022-08-03T05:18:54;98867.03;;;24.92;47.12
70343;BME280;57767;42.068;24.752;2022-08-03T05:19:56;98875.97;;;25.06;47.49
70343;BME280;57767;42.068;24.752;2022-08-03T05:20:58;98883.94;;;25.11;46.92
70343;BME280;57767;42.068;24.752;2022-08-03T05:22:00;98884.88;;;25.20;46.72
70343;BME280;57767;42.068;24.752;2022-08-03T05:23:02;98885.25;;;25.27;46.24
70343;BME280;57767;42.068;24.752;2022-08-03T05:24:04;98884.81;;;25.34;46.59
70343;BME280;57767;42.068;24.752;2022-08-03T05:25:06;98886.31;;;25.40;46.94
70343;BME280;57767;42.068;24.752;2022-08-03T05:26:08;98880.00;;;25.45;47.32
70343;BME280;57767;42.068;24.752;2022-08-03T05:27:12;98884.19;;;25.51;45.09
70343;BME280;57767;42.068;24.752;2022-08-03T05:28:23;98881.97;;;25.53;44.37
70343;BME280;57767;42.068;24.752;2022-08-03T05:29:24;98891.56;;;25.59;44.94
70343;BME280;57767;42.068;24.752;2022-08-03T05:30:26;98884.78;;;25.61;46.29
70343;BME280;57767;42.068;24.752;2022-08-03T05:31:34;98895.19;;;25.68;46.30
70343;BME280;57767;42.068;24.752;2022-08-03T05:32:36;98885.66;;;25.71;45.64
70343;BME280;57767;42.068;24.752;2022-08-03T05:33:38;98889.34;;;25.75;45.81
70343;BME280;57767;42.068;24.752;2022-08-03T05:34:40;98887.63;;;25.79;46.11
70343;BME280;57767;42.068;24.752;2022-08-03T05:35:41;98889.88;;;25.85;47.16
70343;BME280;57767;42.068;24.752;2022-08-03T05:37:03;98868.50;;;25.75;45.61
70343;BME280;57767;42.068;24.752;2022-08-03T05:38:05;98893.59;;;25.89;45.90
70343;BME280;57767;42.068;24.752;2022-08-03T05:39:09;98896.78;;;25.91;45.50
70343;BME280;57767;42.068;24.752;2022-08-03T05:40:11;98895.69;;;25.92;45.60
70343;BME280;57767;42.068;24.752;2022-08-03T05:41:13;98888.56;;;25.96;46.02
70343;BME280;57767;42.068;24.752;2022-08-03T05:42:23;98890.81;;;26.03;44.35
70343;BME280;57767;42.068;24.752;2022-08-03T05:43:25;98896.44;;;26.07;45.42
70343;BME280;57767;42.068;24.752;2022-08-03T05:44:26;98884.91;;;26.01;45.76
70343;BME280;57767;42.068;24.752;2022-08-03T05:45:31;98902.50;;;26.12;45.46
70343;BME280;57767;42.068;24.752;2022-08-03T05:46:32;98888.31;;;26.07;44.90
70343;BME280;57767;42.068;24.752;2022-08-03T05:47:34;98899.19;;;26.15;43.88
70343;BME280;57767;42.068;24.752;2022-08-03T05:48:36;98886.88;;;26.09;45.68
70343;BME280;57767;42.068;24.752;2022-08-03T05:49:38;98900.53;;;26.26;46.30
70343;BME280;57767;42.068;24.752;2022-08-03T05:50:39;98902.66;;;26.29;45.92
70343;BME280;57767;42.068;24.752;2022-08-03T05:51:43;98906.19;;;26.38;45.18
70343;BME280;57767;42.068;24.752;2022-08-03T05:52:45;98907.66;;;26.45;45.20
70343;BME280;57767;42.068;24.752;2022-08-03T05:53:47;98908.94;;;26.47;44.79